sensor_id;sensor_type;location;lat;lon;timestamp;temperature;humidity
46123;DHT22;31856;-35.404;149.120;2024-02-23T00:01:01;24.80;65.70
46123;DHT22;31856;-35.404;149.120;2024-02-23T00:03:30;24.70;67.00
46123;DHT22;31856;-35.404;149.120;2024-02-23T00:06:00;24.60;67.60
46123;DHT22;31856;-35.404;149.120;2024-02-23T00:08:30;24.60;68.20
46123;DHT22;31856;-35.404;149.120;2024-02-23T00:10:59;24.60;66.10
46123;DHT22;31856;-35.404;149.120;2024-02-23T00:13:30;24.50;66.20
46123;DHT22;31856;-35.404;149.120;2024-02-23T00:15:59;24.50;65.90
46123;DHT22;31856;-35.404;149.120;2024-02-23T03:06:09;25.20;71.40
46123;DHT22;31856;-35.404;149.120;2024-02-23T03:08:41;25.00;70.50
46123;DHT22;31856;-35.404;149.120;2024-02-23T03:11:10;25.10;69.90
46123;DHT22;31856;-35.404;149.120;2024-02-23T03:13:41;25.20;68.80
46123;DHT22;31856;-35.404;149.120;2024-02-23T03:16:17;25.40;68.90
46123;DHT22;31856;-35.404;149.120;2024-02-23T03:18:47;25.60;68.90
46123;DHT22;31856;-35.404;149.120;2024-02-23T03:21:18;25.90;69.50
46123;DHT22;31856;-35.404;149.120;2024-02-23T03:23:47;26.10;69.80
46123;DHT22;31856;-35.404;149.120;2024-02-23T03:26:17;26.20;70.00
46123;DHT22;31856;-35.404;149.120;2024-02-23T03:28:49;26.20;68.30
46123;DHT22;31856;-35.404;149.120;2024-02-23T03:31:19;26.40;67.80
46123;DHT22;31856;-35.404;149.120;2024-02-23T03:33:48;26.60;68.10
46123;DHT22;31856;-35.404;149.120;2024-02-23T03:36:18;26.70;67.20
46123;DHT22;31856;-35.404;149.120;2024-02-23T03:38:48;26.90;66.80
46123;DHT22;31856;-35.404;149.120;2024-02-23T03:41:17;27.20;65.70
46123;DHT22;31856;-35.404;149.120;2024-02-23T03:43:47;27.30;64.10
46123;DHT22;31856;-35.404;149.120;2024-02-23T03:46:19;27.30;63.40
46123;DHT22;31856;-35.404;149.120;2024-02-23T03:48:50;27.50;62.20
46123;DHT22;31856;-35.404;149.120;2024-02-23T03:51:21;27.60;61.70
46123;DHT22;31856;-35.404;149.120;2024-02-23T03:53:54;27.60;61.10
46123;DHT22;31856;-35.404;149.120;2024-02-23T03:56:23;27.70;60.70
46123;DHT22;31856;-35.404;149.120;2024-02-23T03:58:53;27.80;59.80
46123;DHT22;31856;-35.404;149.120;2024-02-23T04:01:23;27.90;60.80
46123;DHT22;31856;-35.404;149.120;2024-02-23T04:03:53;28.10;59.80
46123;DHT22;31856;-35.404;149.120;2024-02-23T04:19:56;28.70;55.30
46123;DHT22;31856;-35.404;149.120;2024-02-23T04:22:25;28.80;56.30
46123;DHT22;31856;-35.404;149.120;2024-02-23T04:24:55;29.00;55.10
46123;DHT22;31856;-35.404;149.120;2024-02-23T04:27:24;29.00;55.30
46123;DHT22;31856;-35.404;149.120;2024-02-23T04:29:54;29.20;55.00
46123;DHT22;31856;-35.404;149.120;2024-02-23T04:32:24;29.30;54.60
46123;DHT22;31856;-35.404;149.120;2024-02-23T04:34:53;29.40;53.90
46123;DHT22;31856;-35.404;149.120;2024-02-23T04:37:23;29.30;52.10
46123;DHT22;31856;-35.404;149.120;2024-02-23T04:39:53;29.30;53.70
46123;DHT22;31856;-35.404;149.120;2024-02-23T04:42:24;29.30;54.60
46123;DHT22;31856;-35.404;149.120;2024-02-23T04:44:53;29.30;54.30
46123;DHT22;31856;-35.404;149.120;2024-02-23T04:47:23;29.30;54.10
46123;DHT22;31856;-35.404;149.120;2024-02-23T04:49:54;29.40;54.10
46123;DHT22;31856;-35.404;149.120;2024-02-23T04:52:23;29.40;53.70
46123;DHT22;31856;-35.404;149.120;2024-02-23T04:54:52;29.40;52.40
46123;DHT22;31856;-35.404;149.120;2024-02-23T04:57:22;29.40;52.60
46123;DHT22;31856;-35.404;149.120;2024-02-23T04:59:52;29.40;53.40
46123;DHT22;31856;-35.404;149.120;2024-02-23T05:02:22;29.40;52.90
46123;DHT22;31856;-35.404;149.120;2024-02-23T05:04:52;29.50;52.80
46123;DHT22;31856;-35.404;149.120;2024-02-23T05:07:22;29.60;52.10
46123;DHT22;31856;-35.404;149.120;2024-02-23T05:09:51;29.70;51.70
46123;DHT22;31856;-35.404;149.120;2024-02-23T05:12:22;29.70;50.80
46123;DHT22;31856;-35.404;149.120;2024-02-23T05:15:07;29.70;51.30
46123;DHT22;31856;-35.404;149.120;2024-02-23T05:17:36;29.80;50.20
46123;DHT22;31856;-35.404;149.120;2024-02-23T05:20:06;29.80;50.00
46123;DHT22;31856;-35.404;149.120;2024-02-23T05:22:40;30.00;49.00
46123;DHT22;31856;-35.404;149.120;2024-02-23T05:25:13;30.00;46.60
46123;DHT22;31856;-35.404;149.120;2024-02-23T05:27:45;30.00;47.60
46123;DHT22;31856;-35.404;149.120;2024-02-23T05:30:15;30.00;45.90
46123;DHT22;31856;-35.404;149.120;2024-02-23T05:32:45;30.00;41.40
46123;DHT22;31856;-35.404;149.120;2024-02-23T05:35:16;29.90;40.30
46123;DHT22;31856;-35.404;149.120;2024-02-23T05:37:46;29.80;39.60
46123;DHT22;31856;-35.404;149.120;2024-02-23T05:40:16;29.50;38.10
46123;DHT22;31856;-35.404;149.120;2024-02-23T05:42:47;29.50;39.00
46123;DHT22;31856;-35.404;149.120;2024-02-23T05:45:18;29.50;39.00
46123;DHT22;31856;-35.404;149.120;2024-02-23T06:51:59;28.80;38.90
46123;DHT22;31856;-35.404;149.120;2024-02-23T06:54:28;28.50;39.00
46123;DHT22;31856;-35.404;149.120;2024-02-23T06:56:58;28.50;39.80
46123;DHT22;31856;-35.404;149.120;2024-02-23T06:59:29;28.50;40.20
46123;DHT22;31856;-35.404;149.120;2024-02-23T07:01:59;28.50;40.60
46123;DHT22;31856;-35.404;149.120;2024-02-23T07:04:28;28.50;41.30
46123;DHT22;31856;-35.404;149.120;2024-02-23T07:06:58;28.50;38.40
46123;DHT22;31856;-35.404;149.120;2024-02-23T07:09:28;28.60;38.50
46123;DHT22;31856;-35.404;149.120;2024-02-23T07:11:58;28.60;39.20
46123;DHT22;31856;-35.404;149.120;2024-02-23T07:14:27;28.50;38.90
46123;DHT22;31856;-35.404;149.120;2024-02-23T07:16:57;28.50;39.00
46123;DHT22;31856;-35.404;149.120;2024-02-23T07:19:27;28.50;39.80
46123;DHT22;31856;-35.404;149.120;2024-02-23T07:21:56;28.50;39.70
46123;DHT22;31856;-35.404;149.120;2024-02-23T07:24:26;28.50;36.80
46123;DHT22;31856;-35.404;149.120;2024-02-23T07:26:55;28.40;37.00
46123;DHT22;31856;-35.404;149.120;2024-02-23T07:29:25;28.30;36.50
46123;DHT22;31856;-35.404;149.120;2024-02-23T07:31:55;28.30;37.20
46123;DHT22;31856;-35.404;149.120;2024-02-23T07:34:26;28.30;37.30
46123;DHT22;31856;-35.404;149.120;2024-02-23T07:36:55;28.10;36.90
46123;DHT22;31856;-35.404;149.120;2024-02-23T07:39:25;28.00;37.50
46123;DHT22;31856;-35.404;149.120;2024-02-23T07:41:54;27.90;37.30
46123;DHT22;31856;-35.404;149.120;2024-02-23T07:44:24;27.70;37.10
46123;DHT22;31856;-35.404;149.120;2024-02-23T07:46:55;27.70;37.40
46123;DHT22;31856;-35.404;149.120;2024-02-23T07:49:24;27.60;38.10
46123;DHT22;31856;-35.404;149.120;2024-02-23T07:51:55;27.50;38.40
46123;DHT22;31856;-35.404;149.120;2024-02-23T07:54:25;27.40;37.80
46123;DHT22;31856;-35.404;149.120;2024-02-23T07:56:54;27.30;38.30
46123;DHT22;31856;-35.404;149.120;2024-02-23T07:59:26;27.20;38.00
46123;DHT22;31856;-35.404;149.120;2024-02-23T08:01:57;27.20;38.60
46123;DHT22;31856;-35.404;149.120;2024-02-23T08:04:27;27.00;37.80
46123;DHT22;31856;-35.404;149.120;2024-02-23T08:06:56;26.90;38.60
46123;DHT22;31856;-35.404;149.120;2024-02-23T08:09:26;26.80;37.60
46123;DHT22;31856;-35.404;149.120;2024-02-23T08:11:56;26.70;38.30
46123;DHT22;31856;-35.404;149.120;2024-02-23T08:14:26;26.70;39.30
46123;DHT22;31856;-35.404;149.120;2024-02-23T08:16:56;26.50;39.00
46123;DHT22;31856;-35.404;149.120;2024-02-23T08:19:26;26.40;38.40
46123;DHT22;31856;-35.404;149.120;2024-02-23T08:21:55;26.30;39.60
46123;DHT22;31856;-35.404;149.120;2024-02-23T08:24:26;26.20;40.30
46123;DHT22;31856;-35.404;149.120;2024-02-23T08:26:55;26.10;40.00
46123;DHT22;31856;-35.404;149.120;2024-02-23T08:29:25;26.00;39.30
46123;DHT22;31856;-35.404;149.120;2024-02-23T08:31:55;25.90;40.00
46123;DHT22;31856;-35.404;149.120;2024-02-23T08:34:24;25.80;41.20
46123;DHT22;31856;-35.404;149.120;2024-02-23T08:36:55;25.70;40.80
46123;DHT22;31856;-35.404;149.120;2024-02-23T08:39:24;25.50;40.70
46123;DHT22;31856;-35.404;149.120;2024-02-23T08:41:54;25.40;40.00
46123;DHT22;31856;-35.404;149.120;2024-02-23T08:44:24;25.30;40.40
46123;DHT22;31856;-35.404;149.120;2024-02-23T08:46:53;25.30;40.80
46123;DHT22;31856;-35.404;149.120;2024-02-23T09:09:22;24.50;41.20
46123;DHT22;31856;-35.404;149.120;2024-02-23T09:11:52;24.30;39.90
46123;DHT22;31856;-35.404;149.120;2024-02-23T09:14:22;24.30;40.70
46123;DHT22;31856;-35.404;149.120;2024-02-23T09:16:54;24.30;40.20
46123;DHT22;31856;-35.404;149.120;2024-02-23T09:19:23;24.20;39.70
46123;DHT22;31856;-35.404;149.120;2024-02-23T09:21:53;24.10;39.60
46123;DHT22;31856;-35.404;149.120;2024-02-23T09:24:23;23.80;37.80
46123;DHT22;31856;-35.404;149.120;2024-02-23T09:26:53;23.70;36.60
46123;DHT22;31856;-35.404;149.120;2024-02-23T09:29:22;23.60;36.20
46123;DHT22;31856;-35.404;149.120;2024-02-23T09:31:53;23.50;34.60
46123;DHT22;31856;-35.404;149.120;2024-02-23T09:34:22;23.30;33.10
46123;DHT22;31856;-35.404;149.120;2024-02-23T09:36:53;23.20;32.70
46123;DHT22;31856;-35.404;149.120;2024-02-23T09:39:23;23.10;31.30
46123;DHT22;31856;-35.404;149.120;2024-02-23T09:41:55;23.00;30.40
46123;DHT22;31856;-35.404;149.120;2024-02-23T09:44:29;23.00;30.30
46123;DHT22;31856;-35.404;149.120;2024-02-23T09:47:04;22.90;29.70
46123;DHT22;31856;-35.404;149.120;2024-02-23T09:49:39;22.80;29.80
46123;DHT22;31856;-35.404;149.120;2024-02-23T09:52:09;22.80;30.70
46123;DHT22;31856;-35.404;149.120;2024-02-23T09:54:38;22.70;29.80
46123;DHT22;31856;-35.404;149.120;2024-02-23T09:57:08;22.60;30.50
46123;DHT22;31856;-35.404;149.120;2024-02-23T09:59:38;22.50;29.30
46123;DHT22;31856;-35.404;149.120;2024-02-23T10:02:09;22.40;30.00
46123;DHT22;31856;-35.404;149.120;2024-02-23T10:04:42;22.30;30.90
46123;DHT22;31856;-35.404;149.120;2024-02-23T10:07:15;22.20;31.00
46123;DHT22;31856;-35.404;149.120;2024-02-23T10:09:45;22.20;30.50
46123;DHT22;31856;-35.404;149.120;2024-02-23T10:12:15;22.10;30.90
46123;DHT22;31856;-35.404;149.120;2024-02-23T10:14:46;22.00;31.30
46123;DHT22;31856;-35.404;149.120;2024-02-23T10:17:16;22.00;32.80
46123;DHT22;31856;-35.404;149.120;2024-02-23T10:19:45;21.90;33.50
46123;DHT22;31856;-35.404;149.120;2024-02-23T10:22:16;21.80;33.90
46123;DHT22;31856;-35.404;149.120;2024-02-23T10:24:45;21.80;34.10
46123;DHT22;31856;-35.404;149.120;2024-02-23T10:27:16;21.80;36.60
46123;DHT22;31856;-35.404;149.120;2024-02-23T10:29:49;21.70;37.80
46123;DHT22;31856;-35.404;149.120;2024-02-23T10:32:19;21.80;48.50
46123;DHT22;31856;-35.404;149.120;2024-02-23T10:34:50;21.80;52.10
46123;DHT22;31856;-35.404;149.120;2024-02-23T10:37:22;21.70;54.50
46123;DHT22;31856;-35.404;149.120;2024-02-23T10:39:53;21.70;56.30
46123;DHT22;31856;-35.404;149.120;2024-02-23T10:42:29;21.70;57.00
46123;DHT22;31856;-35.404;149.120;2024-02-23T10:45:00;21.70;57.00
46123;DHT22;31856;-35.404;149.120;2024-02-23T10:47:31;21.50;58.70
46123;DHT22;31856;-35.404;149.120;2024-02-23T10:50:02;21.50;58.30
46123;DHT22;31856;-35.404;149.120;2024-02-23T10:52:33;21.50;58.90
46123;DHT22;31856;-35.404;149.120;2024-02-23T10:55:04;21.40;60.00
46123;DHT22;31856;-35.404;149.120;2024-02-23T10:57:37;21.30;59.70
46123;DHT22;31856;-35.404;149.120;2024-02-23T11:00:09;21.30;59.10
46123;DHT22;31856;-35.404;149.120;2024-02-23T11:02:40;21.30;59.00
46123;DHT22;31856;-35.404;149.120;2024-02-23T11:05:10;21.30;59.20
46123;DHT22;31856;-35.404;149.120;2024-02-23T11:07:42;21.30;59.10
46123;DHT22;31856;-35.404;149.120;2024-02-23T11:10:16;21.30;59.00
46123;DHT22;31856;-35.404;149.120;2024-02-23T11:12:57;21.30;59.10
46123;DHT22;31856;-35.404;149.120;2024-02-23T11:15:28;21.20;59.30
46123;DHT22;31856;-35.404;149.120;2024-02-23T11:17:57;21.10;60.00
46123;DHT22;31856;-35.404;149.120;2024-02-23T11:20:34;21.00;60.20
46123;DHT22;31856;-35.404;149.120;2024-02-23T11:23:12;21.00;60.30
46123;DHT22;31856;-35.404;149.120;2024-02-23T11:25:42;20.90;60.30
46123;DHT22;31856;-35.404;149.120;2024-02-23T11:28:24;20.80;60.20
46123;DHT22;31856;-35.404;149.120;2024-02-23T11:30:53;20.80;60.50
46123;DHT22;31856;-35.404;149.120;2024-02-23T11:33:30;20.80;60.70
46123;DHT22;31856;-35.404;149.120;2024-02-23T11:36:07;20.70;60.70
46123;DHT22;31856;-35.404;149.120;2024-02-23T11:38:38;20.60;60.60
46123;DHT22;31856;-35.404;149.120;2024-02-23T11:41:09;20.50;60.90
46123;DHT22;31856;-35.404;149.120;2024-02-23T11:43:39;20.50;60.90
46123;DHT22;31856;-35.404;149.120;2024-02-23T11:46:09;20.50;60.60
46123;DHT22;31856;-35.404;149.120;2024-02-23T11:48:39;20.50;61.00
46123;DHT22;31856;-35.404;149.120;2024-02-23T11:51:09;20.40;61.20
46123;DHT22;31856;-35.404;149.120;2024-02-23T11:53:39;20.40;61.50
46123;DHT22;31856;-35.404;149.120;2024-02-23T11:56:08;20.40;61.40
46123;DHT22;31856;-35.404;149.120;2024-02-23T11:58:42;20.30;62.50
46123;DHT22;31856;-35.404;149.120;2024-02-23T12:01:12;20.30;62.20
46123;DHT22;31856;-35.404;149.120;2024-02-23T12:03:42;20.20;62.40
46123;DHT22;31856;-35.404;149.120;2024-02-23T12:06:13;20.20;62.30
46123;DHT22;31856;-35.404;149.120;2024-02-23T12:08:46;20.20;62.30
46123;DHT22;31856;-35.404;149.120;2024-02-23T12:11:16;20.10;63.00
46123;DHT22;31856;-35.404;149.120;2024-02-23T12:13:45;20.00;62.70
46123;DHT22;31856;-35.404;149.120;2024-02-23T12:16:15;20.00;62.20
46123;DHT22;31856;-35.404;149.120;2024-02-23T12:18:45;19.90;62.40
46123;DHT22;31856;-35.404;149.120;2024-02-23T12:21:22;19.90;62.60
46123;DHT22;31856;-35.404;149.120;2024-02-23T12:23:53;19.70;62.60
46123;DHT22;31856;-35.404;149.120;2024-02-23T12:26:24;19.70;62.70
46123;DHT22;31856;-35.404;149.120;2024-02-23T12:28:59;19.70;62.80
46123;DHT22;31856;-35.404;149.120;2024-02-23T13:08:53;19.60;63.40
46123;DHT22;31856;-35.404;149.120;2024-02-23T13:11:23;19.60;63.30
46123;DHT22;31856;-35.404;149.120;2024-02-23T13:13:52;19.60;63.60
46123;DHT22;31856;-35.404;149.120;2024-02-23T13:16:22;19.50;63.40
46123;DHT22;31856;-35.404;149.120;2024-02-23T13:18:51;19.60;63.90
46123;DHT22;31856;-35.404;149.120;2024-02-23T13:21:21;19.60;63.60
46123;DHT22;31856;-35.404;149.120;2024-02-23T13:23:51;19.60;63.40
46123;DHT22;31856;-35.404;149.120;2024-02-23T13:26:21;19.60;63.50
46123;DHT22;31856;-35.404;149.120;2024-02-23T13:28:51;19.60;63.50
46123;DHT22;31856;-35.404;149.120;2024-02-23T13:31:20;19.60;63.90
46123;DHT22;31856;-35.404;149.120;2024-02-23T13:33:50;19.50;63.50
46123;DHT22;31856;-35.404;149.120;2024-02-23T13:36:20;19.50;63.40
46123;DHT22;31856;-35.404;149.120;2024-02-23T13:38:50;19.50;63.60
46123;DHT22;31856;-35.404;149.120;2024-02-23T13:41:23;19.60;63.90
46123;DHT22;31856;-35.404;149.120;2024-02-23T13:43:53;19.50;64.10
46123;DHT22;31856;-35.404;149.120;2024-02-23T13:46:23;19.40;63.90
46123;DHT22;31856;-35.404;149.120;2024-02-23T13:49:03;19.40;63.70
46123;DHT22;31856;-35.404;149.120;2024-02-23T13:51:36;19.40;63.70
46123;DHT22;31856;-35.404;149.120;2024-02-23T13:54:06;19.40;63.80
46123;DHT22;31856;-35.404;149.120;2024-02-23T13:56:35;19.40;64.00
46123;DHT22;31856;-35.404;149.120;2024-02-23T13:59:05;19.40;63.80
46123;DHT22;31856;-35.404;149.120;2024-02-23T14:01:35;19.40;63.10
46123;DHT22;31856;-35.404;149.120;2024-02-23T14:04:06;19.30;63.30
46123;DHT22;31856;-35.404;149.120;2024-02-23T14:40:53;18.70;64.70
46123;DHT22;31856;-35.404;149.120;2024-02-23T14:43:23;18.80;64.70
46123;DHT22;31856;-35.404;149.120;2024-02-23T14:45:53;18.80;64.40
46123;DHT22;31856;-35.404;149.120;2024-02-23T14:48:23;18.80;64.60
46123;DHT22;31856;-35.404;149.120;2024-02-23T14:50:52;18.80;64.70
46123;DHT22;31856;-35.404;149.120;2024-02-23T14:53:22;18.80;64.60
46123;DHT22;31856;-35.404;149.120;2024-02-23T14:55:55;18.80;64.90
46123;DHT22;31856;-35.404;149.120;2024-02-23T14:58:25;18.80;64.50
46123;DHT22;31856;-35.404;149.120;2024-02-23T15:00:56;18.70;65.00
46123;DHT22;31856;-35.404;149.120;2024-02-23T15:03:26;18.80;64.60
46123;DHT22;31856;-35.404;149.120;2024-02-23T15:05:56;18.80;64.80
46123;DHT22;31856;-35.404;149.120;2024-02-23T15:08:26;18.80;64.80
46123;DHT22;31856;-35.404;149.120;2024-02-23T15:10:56;18.80;64.70
46123;DHT22;31856;-35.404;149.120;2024-02-23T15:13:25;18.80;64.50
46123;DHT22;31856;-35.404;149.120;2024-02-23T15:15:55;18.80;64.40
46123;DHT22;31856;-35.404;149.120;2024-02-23T15:18:25;18.80;64.20
46123;DHT22;31856;-35.404;149.120;2024-02-23T15:20:55;18.80;64.30
46123;DHT22;31856;-35.404;149.120;2024-02-23T15:23:24;18.90;63.80
46123;DHT22;31856;-35.404;149.120;2024-02-23T15:25:55;18.80;64.10
46123;DHT22;31856;-35.404;149.120;2024-02-23T15:28:37;18.90;63.90
46123;DHT22;31856;-35.404;149.120;2024-02-23T15:31:06;18.90;64.40
46123;DHT22;31856;-35.404;149.120;2024-02-23T15:33:37;18.90;64.50
46123;DHT22;31856;-35.404;149.120;2024-02-23T15:36:08;18.80;64.20
46123;DHT22;31856;-35.404;149.120;2024-02-23T17:30:54;18.30;66.50
46123;DHT22;31856;-35.404;149.120;2024-02-23T17:33:25;18.20;66.40
46123;DHT22;31856;-35.404;149.120;2024-02-23T17:35:54;18.30;66.80
46123;DHT22;31856;-35.404;149.120;2024-02-23T17:38:24;18.30;67.10
46123;DHT22;31856;-35.404;149.120;2024-02-23T17:40:54;18.20;66.60
46123;DHT22;31856;-35.404;149.120;2024-02-23T17:43:24;18.30;66.40
46123;DHT22;31856;-35.404;149.120;2024-02-23T17:45:53;18.30;66.10
46123;DHT22;31856;-35.404;149.120;2024-02-23T17:48:24;18.20;65.70
46123;DHT22;31856;-35.404;149.120;2024-02-23T17:50:54;18.20;65.70
46123;DHT22;31856;-35.404;149.120;2024-02-23T17:53:24;18.10;65.70
46123;DHT22;31856;-35.404;149.120;2024-02-23T17:55:55;18.00;65.70
46123;DHT22;31856;-35.404;149.120;2024-02-23T17:58:27;18.00;65.60
46123;DHT22;31856;-35.404;149.120;2024-02-23T18:00:57;18.00;65.70
46123;DHT22;31856;-35.404;149.120;2024-02-23T18:03:27;18.00;65.30
46123;DHT22;31856;-35.404;149.120;2024-02-23T18:05:57;17.90;65.20
46123;DHT22;31856;-35.404;149.120;2024-02-23T18:08:26;17.90;65.40
46123;DHT22;31856;-35.404;149.120;2024-02-23T18:10:56;17.80;65.70
46123;DHT22;31856;-35.404;149.120;2024-02-23T18:13:28;17.80;65.80
46123;DHT22;31856;-35.404;149.120;2024-02-23T18:15:59;17.80;65.60
46123;DHT22;31856;-35.404;149.120;2024-02-23T18:18:32;17.80;66.00
46123;DHT22;31856;-35.404;149.120;2024-02-23T18:21:02;17.80;65.80
46123;DHT22;31856;-35.404;149.120;2024-02-23T18:23:31;17.80;66.00
46123;DHT22;31856;-35.404;149.120;2024-02-23T18:26:02;17.80;66.30
46123;DHT22;31856;-35.404;149.120;2024-02-23T20:46:58;17.40;67.50
46123;DHT22;31856;-35.404;149.120;2024-02-23T20:49:29;17.50;67.70
46123;DHT22;31856;-35.404;149.120;2024-02-23T20:52:02;17.50;67.20
46123;DHT22;31856;-35.404;149.120;2024-02-23T20:54:32;17.50;66.80
46123;DHT22;31856;-35.404;149.120;2024-02-23T20:57:02;17.60;67.20
46123;DHT22;31856;-35.404;149.120;2024-02-23T20:59:34;17.60;67.40
46123;DHT22;31856;-35.404;149.120;2024-02-23T21:02:04;17.60;67.10
46123;DHT22;31856;-35.404;149.120;2024-02-23T21:04:34;17.70;67.10
46123;DHT22;31856;-35.404;149.120;2024-02-23T21:07:10;17.70;67.30
46123;DHT22;31856;-35.404;149.120;2024-02-23T21:09:40;17.60;66.90
46123;DHT22;31856;-35.404;149.120;2024-02-23T21:12:10;17.70;67.00
46123;DHT22;31856;-35.404;149.120;2024-02-23T21:14:40;17.70;67.00
46123;DHT22;31856;-35.404;149.120;2024-02-23T21:17:10;17.80;66.50
46123;DHT22;31856;-35.404;149.120;2024-02-23T21:19:39;17.80;66.40
46123;DHT22;31856;-35.404;149.120;2024-02-23T21:22:09;17.90;66.60
46123;DHT22;31856;-35.404;149.120;2024-02-23T21:24:38;17.90;66.60
46123;DHT22;31856;-35.404;149.120;2024-02-23T21:27:12;17.90;66.80
46123;DHT22;31856;-35.404;149.120;2024-02-23T21:29:42;18.00;66.40
46123;DHT22;31856;-35.404;149.120;2024-02-23T21:32:14;18.00;66.80
46123;DHT22;31856;-35.404;149.120;2024-02-23T21:34:45;18.00;66.60
46123;DHT22;31856;-35.404;149.120;2024-02-23T21:37:15;18.10;66.70
46123;DHT22;31856;-35.404;149.120;2024-02-23T21:39:47;18.20;66.70
46123;DHT22;31856;-35.404;149.120;2024-02-23T21:42:16;18.20;66.50
46123;DHT22;31856;-35.404;149.120;2024-02-23T21:44:47;18.20;66.30
46123;DHT22;31856;-35.404;149.120;2024-02-23T21:47:17;18.40;66.00
46123;DHT22;31856;-35.404;149.120;2024-02-23T21:49:47;18.40;66.00
46123;DHT22;31856;-35.404;149.120;2024-02-23T21:52:16;18.40;66.00
46123;DHT22;31856;-35.404;149.120;2024-02-23T21:54:47;18.40;65.90
46123;DHT22;31856;-35.404;149.120;2024-02-23T21:57:17;18.40;65.70
46123;DHT22;31856;-35.404;149.120;2024-02-23T21:59:48;18.40;65.70
46123;DHT22;31856;-35.404;149.120;2024-02-23T22:02:21;18.50;65.90
46123;DHT22;31856;-35.404;149.120;2024-02-23T22:04:51;18.50;65.90
46123;DHT22;31856;-35.404;149.120;2024-02-23T22:07:24;18.60;65.90
46123;DHT22;31856;-35.404;149.120;2024-02-23T22:09:53;18.60;66.80
46123;DHT22;31856;-35.404;149.120;2024-02-23T22:12:26;18.70;66.70
46123;DHT22;31856;-35.404;149.120;2024-02-23T22:14:57;18.70;66.40
46123;DHT22;31856;-35.404;149.120;2024-02-23T22:17:27;18.80;66.90
46123;DHT22;31856;-35.404;149.120;2024-02-23T22:19:57;18.90;66.40
46123;DHT22;31856;-35.404;149.120;2024-02-23T22:22:28;19.00;66.50
46123;DHT22;31856;-35.404;149.120;2024-02-23T22:25:00;19.20;66.80
46123;DHT22;31856;-35.404;149.120;2024-02-23T22:27:30;19.30;66.90
46123;DHT22;31856;-35.404;149.120;2024-02-23T22:30:02;19.30;66.00
46123;DHT22;31856;-35.404;149.120;2024-02-23T22:32:32;19.20;66.30
46123;DHT22;31856;-35.404;149.120;2024-02-23T22:35:02;19.30;66.60
46123;DHT22;31856;-35.404;149.120;2024-02-23T22:37:33;19.60;66.00
46123;DHT22;31856;-35.404;149.120;2024-02-23T22:40:03;19.80;65.30
46123;DHT22;31856;-35.404;149.120;2024-02-23T22:42:33;20.00;64.40
46123;DHT22;31856;-35.404;149.120;2024-02-23T22:45:03;20.20;64.10
46123;DHT22;31856;-35.404;149.120;2024-02-23T22:47:33;20.30;63.80
46123;DHT22;31856;-35.404;149.120;2024-02-23T22:50:03;20.40;62.70
46123;DHT22;31856;-35.404;149.120;2024-02-23T22:52:34;20.50;61.50
46123;DHT22;31856;-35.404;149.120;2024-02-23T22:55:04;20.70;61.00
46123;DHT22;31856;-35.404;149.120;2024-02-23T22:57:34;20.80;61.10
46123;DHT22;31856;-35.404;149.120;2024-02-23T23:52:51;20.40;60.30
46123;DHT22;31856;-35.404;149.120;2024-02-23T23:55:21;20.50;60.80
46123;DHT22;31856;-35.404;149.120;2024-02-23T23:57:50;20.70;61.00
